Terminal Aerodrome Forecast
Issued by NWS

Home | Current Version | Previous Version | Text Only | Print | Product List | Glossary On
Versions: 1 2 3 4 5 6 7 8 9 10 11 12 13 14 15 16 17 18
051
FTUS44 KTSA 211128
TAFBVO
TAF
KBVO 211128Z 2112/2212 03010G17KT P6SM OVC015
     FM220000 03009KT 3SM -FZRAPL BR OVC007
     FM220900 04005KT 4SM BR OVC007=

USA.gov is the U.S. government's official web portal to all federal, state and local government web resources and services.